Dauntless Aviation
Airports Europe Belgium
EBAW
ANR

Antwerp International Airport (Deurne)

Antwerp, BELGIUM

Airport Info
Suggest Updated Information for this Airport

Location

Latitude / Longitude: 51°11'21"N / 4°27'37"E
  51°11.364'N / 4°27.618'E
  51.1894 / 4.4603

Nearby radio navigation aids

ANT ANTWERPEN VOR/DME on field.
NIK NICKY VOR/DME. 83.0° 10.6nm from NIK to field.
ONW ANTWERPEN NDB. 290.6° 4.1nm from ONW to field.
WW ANTWERP NDB on field.

Runway Information

Runway 11 /29

Dimensions: 4954 x 148 ft.
Surface: ASP
 
Runway 11
Runway 29
Latitude: 51.191861 51.187706
Longitude: 4.454758 4.473178
Elevation: 36 ft. 36 ft.
Runway true heading: 108 288
 

Instrument Procedures

  Aerodrome Chart
  Aerodrome Chart Appendix 1: Runway Marking and Lighting Aids
  Aerodrome Chart Appendix 2: Hot Spots

STARs (Standard Terminal Arrivals)

  STAR - Instrument

IAPs (Instrument Approach Procedures)

  Visual Approach Chart
  Visual Approach Chart Appendix 1: Aerodrome Traffic Circuit
  Visual Approach Chart Appendix 2: Helicopter Procedures
  Aerodrome Obstacle Chart. Type A (Operating Limitations)
  RNAV (GNSS) Rwy 11. Appendix: FAS Datablock
  Aerodrome Information (Textual)
  ATC Surveillance Minimum Altitude Chart
  ILS or LOC Rwy 29
  RNAV (GNSS) Rwy 11
  VOR Rwy 11
  VOR Rwy 29

Departure Procedures

  SID - Instrument Rwy 11
  SID - Instrument Rwy 29
Satellite photo at:
Airport distance calculator
From:
Weather Reports

METAR

EBAW

EBAW 210720Z 11004KT 3500 BR SCT003 BKN004 12/11 Q1012 TEMPO 2000 BR BKN003
EHWO
16.5nm NW
EHWO 210725Z AUTO 08006KT 040V150 5000 BR SCT002 OVC003 11/11 Q1012 AMB 07007KT 6000 BKN005 BKN008 TEMPO 4000 BR BKN003
EBBR
17.4nm SE
EBBR 210720Z 18007KT CAVOK 12/11 Q1012 NOSIG
EBDT
25.1nm E
EBDT 210722Z 16003KT 1600 BR FEW004 SCT037 BKN070 12/12 Q1013 YLO GRN BECMG WHT
EHGR
28.4nm N
EHGR 210725Z AUTO VRB02KT 4400 BR SCT002 OVC004 12/12 Q1012 AMB 008003KT 3500 BR SCT002 BKN003 TEMPO 0700 FG SCT001 BKN002
EBBE
28.8nm SE
EBBE 210722Z 20012KT 9999 SCT023 BKN028 13/11 Q1013 WHT WHT BECMG BLU

TAF

EBAW
TAF EBAW 210520Z 2106/2115 11004KT 3200 BR BKN004 PROB30 TEMPO 2106/2107 1800 BR BKN002 BECMG 2107/2109 18010KT BECMG 7000 NSW SCT014
EHWO
16.5nm NW
TAF EHWO 210415Z 2105/2117 06010KT 6000 BKN006 TEMPO 2105/2108 3000 RADZ BKN003 PROB30 TEMPO 2105/2107 2000 DZRA BKN002 BECMG 2107/2110 18007KT SCT012 BKN020
EBBR
17.4nm SE
TAF EBBR 210520Z 2106/2212 11004KT 3200 BR BKN004 PROB30 TEMPO 2106/2107 1800 BR BKN002 BECMG 2106/2108 18010KT 7000 NSW SCT014 PROB30 TEMPO 2203/2207 0400 FG BKN001
EBDT
25.1nm E
TAF EBDT 210541Z 2107/2116 20010KT 4000 BR SCT010 BKN025 BECMG 2107/2109 9999 NSW FEW016 BKN030 TEMPO 2109/2116 21015G25KT 5000 -SHRA SCT013 BKN020
EHGR
28.4nm N
TAF EHGR 210439Z 2105/2117 06007KT 2000 DZRA BR BKN004 PROB30 TEMPO 2105/2108 0800 FG BKN001 BECMG 2108/2110 19008KT 9999 NSW SCT015 BKN020
EBBE
28.8nm SE
TAF EBBE 210541Z 2107/2116 19009KT 6000 SCT020 BKN030 TEMPO 2107/2109 3000 BR SCT010 BKN020 BECMG 2109/2111 22012KT 9999 FEW018 BKN025 TEMPO 2112/2116 7000 -RA
Safelog

 

Dauntless Aviation

© 2007-2019 Dauntless Aviation, all rights reserved
Information provided via PilotNav comes from a variety of official and unofficial data sources. As errors are possible, do not use PilotNav for primary flight planning purposes. Verify any information that you receive via PilotNav with current and canonical charts and other official documents. The material in this database is subject to database copyrights held by Dauntless Aviation and may not be copied without the express permission of Dauntless Aviation - licenses for use of part of all of this data are available for purchase; enquire via the Dauntless Aviation helpdesk. A number of mechanisms and markers exist in the database to protect against and identify infringement / copyright. Automated queries against this website are stictly prohibited, and all activity is logged and analyzed.